createdAt,value
2018-05-16T00:01:42.290Z,56.02
2018-05-16T00:04:10.624Z,56.11
2018-05-16T00:06:38.982Z,56.66
2018-05-16T00:09:07.330Z,56.73
2018-05-16T00:11:35.670Z,57.11
2018-05-16T00:14:04.104Z,57.32
2018-05-16T00:16:33.230Z,57.95
2018-05-16T00:19:01.577Z,58.25
2018-05-16T00:21:30.714Z,58.04
2018-05-16T00:23:59.044Z,59.02
2018-05-16T00:26:27.343Z,59.52
2018-05-16T00:28:56.455Z,59.32
2018-05-16T00:31:24.768Z,59.65
2018-05-16T00:33:53.159Z,59.82
2018-05-16T00:36:21.864Z,60.05
2018-05-16T00:38:50.223Z,60.10
2018-05-16T00:41:18.565Z,59.86
2018-05-16T00:43:46.927Z,60.06
2018-05-16T00:46:15.272Z,60.35
2018-05-16T00:48:43.652Z,59.75
2018-05-16T00:51:29.694Z,59.60
2018-05-16T00:53:58.099Z,59.74
2018-05-16T00:56:26.433Z,60.25
2018-05-16T00:58:55.607Z,59.90
2018-05-16T01:01:24.012Z,60.35
2018-05-16T01:03:53.172Z,59.91
2018-05-16T01:06:21.569Z,60.50
2018-05-16T01:08:49.928Z,60.43
2018-05-16T01:11:18.243Z,60.43
2018-05-16T01:13:47.048Z,59.76
2018-05-16T01:16:15.386Z,60.38
2018-05-16T01:18:43.759Z,60.70
2018-05-16T01:21:12.178Z,60.55
2018-05-16T01:23:41.301Z,60.26
2018-05-16T01:26:09.785Z,59.59
2018-05-16T01:28:38.934Z,60.22
2018-05-16T01:31:08.126Z,59.68
2018-05-16T01:33:36.504Z,59.59
2018-05-16T01:36:05.150Z,59.57
2018-05-16T01:38:33.530Z,60.05
2018-05-16T01:41:01.946Z,60.23
2018-05-16T01:43:30.455Z,59.40
2018-05-16T01:45:59.751Z,59.38
2018-05-16T01:48:28.890Z,58.36
2018-05-16T01:50:57.354Z,58.19
2018-05-16T01:53:25.702Z,57.82
2018-05-16T01:55:54.037Z,57.49
2018-05-16T01:58:22.735Z,57.46
2018-05-16T02:00:51.153Z,57.08
2018-05-16T02:03:19.493Z,56.79
2018-05-16T02:05:47.892Z,56.93
2018-05-16T02:08:16.339Z,57.29
2018-05-16T02:10:44.697Z,57.56
2018-05-16T02:13:13.123Z,57.05
2018-05-16T02:15:41.513Z,57.53
2018-05-16T02:18:09.920Z,57.29
2018-05-16T02:20:38.481Z,57.57
2018-05-16T02:23:06.842Z,57.51
2018-05-16T02:25:35.235Z,57.11
2018-05-16T02:28:03.621Z,57.37
2018-05-16T02:30:31.964Z,57.35
2018-05-16T02:33:00.323Z,57.13
2018-05-16T02:35:28.701Z,57.11
2018-05-16T02:37:57.049Z,57.01
2018-05-16T02:40:26.309Z,56.69
2018-05-16T02:42:55.033Z,56.48
2018-05-16T02:45:23.435Z,56.59
2018-05-16T02:47:51.759Z,56.33
2018-05-16T02:50:20.135Z,56.63
2018-05-16T02:52:48.549Z,56.81
2018-05-16T02:55:16.921Z,56.80
2018-05-16T02:57:45.327Z,57.06
2018-05-16T03:00:14.441Z,57.12
2018-05-16T03:02:42.777Z,56.97
2018-05-16T03:05:11.338Z,57.13
2018-05-16T03:07:39.724Z,57.31
2018-05-16T03:10:08.123Z,57.05
2018-05-16T03:12:36.824Z,57.25
2018-05-16T03:15:06.003Z,57.73
2018-05-16T03:17:34.383Z,58.19
2018-05-16T03:20:02.866Z,58.29
2018-05-16T03:22:31.274Z,58.57
2018-05-16T03:24:59.686Z,58.86
2018-05-16T03:27:28.932Z,58.69
2018-05-16T03:29:58.358Z,59.10
2018-05-16T03:32:27.512Z,59.71
2018-05-16T03:34:55.912Z,59.51
2018-05-16T03:37:24.293Z,60.43
2018-05-16T03:39:52.750Z,60.39
2018-05-16T03:42:21.149Z,59.91
2018-05-16T03:44:49.509Z,59.86
2018-05-16T03:47:17.904Z,59.62
2018-05-16T03:49:46.608Z,59.78
2018-05-16T03:52:15.708Z,60.12
2018-05-16T03:54:44.194Z,60.07
2018-05-16T04:00:41.245Z,61.30
2018-05-16T04:03:27.324Z,61.35
2018-05-16T04:05:55.796Z,61.70
2018-05-16T04:08:24.919Z,61.34
2018-05-16T04:10:53.708Z,61.19
2018-05-16T04:13:22.125Z,61.60
2018-05-16T04:15:50.536Z,61.34
2018-05-16T04:18:18.956Z,62.19
2018-05-16T04:20:48.148Z,61.60
2018-05-16T04:23:16.514Z,61.42
2018-05-16T04:25:44.986Z,61.55
2018-05-16T04:28:13.554Z,61.35
2018-05-16T04:30:41.983Z,60.75
2018-05-16T04:33:10.997Z,60.30
2018-05-16T04:35:40.183Z,60.37
2018-05-16T04:38:08.613Z,59.77
2018-05-16T04:40:37.097Z,60.36
2018-05-16T04:43:05.512Z,60.03
2018-05-16T04:45:33.992Z,59.42
2018-05-16T04:48:02.372Z,59.37
2018-05-16T04:50:30.751Z,58.25
2018-05-16T04:52:59.179Z,58.77
2018-05-16T04:55:28.022Z,58.78
2018-05-16T04:57:56.407Z,59.05
2018-05-16T05:00:24.807Z,58.91
2018-05-16T05:02:53.999Z,58.40
2018-05-16T05:05:23.262Z,57.77
2018-05-16T05:07:51.639Z,57.58
2018-05-16T05:10:20.124Z,57.82
2018-05-16T05:12:48.459Z,57.45
2018-05-16T05:15:16.809Z,57.35
2018-05-16T05:17:46.211Z,57.71
2018-05-16T05:20:15.389Z,56.93
2018-05-16T05:22:44.693Z,56.84
2018-05-16T05:25:13.088Z,56.41
2018-05-16T05:27:41.395Z,56.32
2018-05-16T05:30:09.827Z,56.17
2018-05-16T05:32:38.491Z,56.37
2018-05-16T05:35:06.979Z,55.95
2018-05-16T05:37:35.522Z,56.22
2018-05-16T05:40:04.107Z,56.23
2018-05-16T05:42:33.268Z,55.75
2018-05-16T05:45:02.250Z,55.23
2018-05-16T05:47:30.758Z,54.83
2018-05-16T05:49:59.150Z,53.91
2018-05-16T05:52:27.455Z,53.46
2018-05-16T05:54:55.818Z,53.47
2018-05-16T05:57:24.963Z,53.55
2018-05-16T05:59:53.311Z,53.39
2018-05-16T06:02:21.775Z,52.90
2018-05-16T06:04:50.130Z,53.06
2018-05-16T06:07:19.307Z,53.20
2018-05-16T06:09:47.678Z,53.49
2018-05-16T06:12:16.013Z,52.79
2018-05-16T06:14:45.119Z,52.19
2018-05-16T06:17:13.513Z,52.20
2018-05-16T06:19:41.947Z,51.76
2018-05-16T06:22:10.287Z,51.65
2018-05-16T06:24:39.023Z,50.54
2018-05-16T06:27:08.177Z,50.27
2018-05-16T06:29:37.235Z,50.08
2018-05-16T06:32:05.577Z,50.40
2018-05-16T06:34:33.927Z,50.58
2018-05-16T06:37:03.246Z,50.44
2018-05-16T06:39:31.687Z,50.23
2018-05-16T06:41:59.970Z,50.43
2018-05-16T06:44:28.280Z,49.65
2018-05-16T06:46:57.319Z,49.01
2018-05-16T06:49:25.747Z,47.84
2018-05-16T06:51:54.090Z,48.07
2018-05-16T06:54:22.469Z,47.61
2018-05-16T06:56:50.819Z,47.44
2018-05-16T06:59:19.165Z,47.32
2018-05-16T07:01:47.514Z,47.61
2018-05-16T07:04:15.820Z,47.42
2018-05-16T07:06:44.132Z,46.78
2018-05-16T07:09:12.866Z,46.47
2018-05-16T07:11:41.191Z,45.56
2018-05-16T07:14:09.513Z,45.25
2018-05-16T07:16:37.895Z,44.53
2018-05-16T07:19:06.231Z,45.14
2018-05-16T07:21:34.587Z,43.77
2018-05-16T07:24:02.950Z,43.57
2018-05-16T07:26:31.312Z,43.67
2018-05-16T07:28:59.647Z,44.44
2018-05-16T07:31:28.355Z,44.28
2018-05-16T07:33:56.669Z,43.97
2018-05-16T07:36:24.981Z,43.84
2018-05-16T07:38:53.330Z,43.89
2018-05-16T07:41:21.668Z,43.31
2018-05-16T07:43:49.978Z,42.66
2018-05-16T07:46:18.333Z,43.33
2018-05-16T07:48:47.825Z,43.33
2018-05-16T07:51:16.980Z,41.78
2018-05-16T07:53:45.543Z,41.82
2018-05-16T07:56:13.898Z,41.93
2018-05-16T07:58:42.251Z,41.40
2018-05-16T08:01:10.783Z,41.08
2018-05-16T08:03:39.095Z,40.38
2018-05-16T08:06:07.435Z,40.44
2018-05-16T08:08:35.822Z,40.55
2018-05-16T08:11:04.130Z,40.38
2018-05-16T08:13:33.258Z,40.39
2018-05-16T08:16:02.587Z,40.24
2018-05-16T08:18:30.936Z,40.79
2018-05-16T08:21:00.019Z,40.19
2018-05-16T08:23:28.367Z,39.82
2018-05-16T08:25:56.676Z,39.71
2018-05-16T08:28:24.994Z,40.27
2018-05-16T08:30:53.374Z,39.83
2018-05-16T08:33:21.693Z,39.31
2018-05-16T08:35:50.038Z,39.57
2018-05-16T08:38:18.509Z,39.40
2018-05-16T08:40:46.839Z,39.49
2018-05-16T08:43:15.156Z,38.85
2018-05-16T08:45:43.536Z,37.90
2018-05-16T08:48:12.761Z,37.84
2018-05-16T08:50:41.110Z,37.04
2018-05-16T08:53:10.248Z,36.67
2018-05-16T08:55:38.822Z,36.16
2018-05-16T08:58:07.164Z,35.83
2018-05-16T09:00:36.772Z,34.29
2018-05-16T09:03:05.096Z,33.77
2018-05-16T09:05:33.461Z,33.69
2018-05-16T09:08:01.823Z,33.20
2018-05-16T09:10:30.184Z,32.71
2018-05-16T09:12:59.279Z,32.14
2018-05-16T09:15:28.419Z,31.58
2018-05-16T09:17:56.771Z,31.91
2018-05-16T09:20:25.107Z,32.38
2018-05-16T09:22:53.728Z,31.95
2018-05-16T09:25:22.041Z,31.70
2018-05-16T09:27:50.382Z,31.00
2018-05-16T09:30:19.505Z,30.49
2018-05-16T09:32:47.860Z,29.96
2018-05-16T09:35:16.196Z,29.70
2018-05-16T09:37:44.569Z,29.17
2018-05-16T09:40:12.934Z,29.67
2018-05-16T09:42:41.306Z,29.64
2018-05-16T09:45:09.740Z,29.93
2018-05-16T09:47:38.121Z,29.55
2018-05-16T09:50:06.474Z,29.10
2018-05-16T09:52:34.837Z,28.46
2018-05-16T09:55:03.174Z,27.94
2018-05-16T09:57:31.517Z,27.89
2018-05-16T09:59:59.862Z,28.53
2018-05-16T10:02:28.239Z,28.23
2018-05-16T10:04:56.548Z,28.00
2018-05-16T10:07:25.241Z,27.22
2018-05-16T10:09:53.613Z,27.60
2018-05-16T10:12:21.928Z,27.30
2018-05-16T10:14:50.277Z,26.78
2018-05-16T10:17:18.625Z,26.63
2018-05-16T10:19:46.998Z,26.62
2018-05-16T10:22:15.422Z,26.31
2018-05-16T10:24:43.796Z,26.82
2018-05-16T10:27:12.152Z,27.00
2018-05-16T10:29:40.892Z,26.02
2018-05-16T10:32:09.247Z,26.07
2018-05-16T10:34:37.704Z,26.11
2018-05-16T10:37:12.664Z,25.60
2018-05-16T10:39:41.061Z,25.48
2018-05-16T10:42:10.185Z,25.47
2018-05-16T10:44:38.540Z,25.89
2018-05-16T10:47:06.871Z,25.43
2018-05-16T10:49:35.204Z,25.76
2018-05-16T10:52:04.609Z,25.37
2018-05-16T10:54:33.748Z,25.46
2018-05-16T10:57:02.096Z,25.25
2018-05-16T10:59:31.216Z,25.45
2018-05-16T11:01:59.562Z,25.63
2018-05-16T11:04:28.650Z,25.28
2018-05-16T11:06:56.994Z,24.98
2018-05-16T11:09:25.320Z,24.68
2018-05-16T11:11:54.411Z,25.19
2018-05-16T11:14:23.204Z,25.10
2018-05-16T11:16:51.524Z,25.35
2018-05-16T11:19:19.838Z,26.12
2018-05-16T11:21:48.233Z,26.32
2018-05-16T11:24:16.573Z,26.00
2018-05-16T11:26:44.912Z,25.57
2018-05-16T11:29:13.252Z,25.20
2018-05-16T11:31:41.613Z,24.74
2018-05-16T11:34:09.985Z,24.32
2018-05-16T11:36:38.510Z,24.29
2018-05-16T11:39:07.584Z,24.12
2018-05-16T11:41:35.924Z,24.47
2018-05-16T11:44:04.283Z,25.86
2018-05-16T11:46:32.632Z,25.42
2018-05-16T11:49:00.933Z,25.50
2018-05-16T11:51:30.092Z,24.32
2018-05-16T11:53:58.462Z,23.84
2018-05-16T11:56:26.796Z,24.59
2018-05-16T11:58:55.517Z,23.69
2018-05-16T12:01:23.845Z,23.34
2018-05-16T12:03:52.956Z,23.55
2018-05-16T12:06:21.355Z,23.39
2018-05-16T12:08:49.673Z,23.23
2018-05-16T12:11:18.080Z,23.55
2018-05-16T12:13:46.477Z,23.72
2018-05-16T12:16:14.797Z,24.03
2018-05-16T12:18:43.135Z,23.68
2018-05-16T12:21:12.209Z,23.67
2018-05-16T12:23:41.504Z,23.49
2018-05-16T12:26:10.618Z,24.00
2018-05-16T12:28:38.982Z,23.50
2018-05-16T12:31:08.100Z,23.21
2018-05-16T12:33:36.452Z,23.35
2018-05-16T12:36:04.830Z,23.98
2018-05-16T12:38:33.161Z,24.12
2018-05-16T12:41:01.508Z,24.74
2018-05-16T12:43:32.958Z,25.04
2018-05-16T12:46:02.089Z,25.49
2018-05-16T12:48:30.419Z,25.25
2018-05-16T12:50:58.811Z,25.94
2018-05-16T12:53:27.906Z,25.67
2018-05-16T12:55:57.009Z,25.52
2018-05-16T12:58:26.138Z,25.74
2018-05-16T13:00:54.463Z,25.95
2018-05-16T13:03:22.794Z,25.74
2018-05-16T13:05:51.539Z,25.20
2018-05-16T13:08:20.644Z,25.35
2018-05-16T13:10:49.747Z,25.28
2018-05-16T13:13:18.108Z,25.51
2018-05-16T13:15:47.217Z,24.68
2018-05-16T13:18:15.532Z,24.42
2018-05-16T13:20:43.872Z,24.77
2018-05-16T13:23:12.523Z,24.45
2018-05-16T13:25:40.839Z,24.82
2018-05-16T13:31:19.508Z,24.72
2018-05-16T13:33:47.933Z,24.40
2018-05-16T13:36:16.313Z,22.73
2018-05-16T13:38:44.597Z,22.69
2018-05-16T13:41:12.964Z,23.04
2018-05-16T13:43:41.302Z,22.42
2018-05-16T13:46:09.667Z,22.28
2018-05-16T13:48:38.435Z,22.06
2018-05-16T13:51:06.763Z,22.64
2018-05-16T13:53:35.193Z,22.88
2018-05-16T13:56:03.527Z,23.21
2018-05-16T13:58:31.866Z,24.85
2018-05-16T14:01:00.176Z,24.91
2018-05-16T14:03:28.565Z,24.43
2018-05-16T14:05:56.888Z,24.84
2018-05-16T14:08:25.972Z,23.86
2018-05-16T14:10:54.418Z,23.60
2018-05-16T14:15:57.202Z,24.75
2018-05-16T14:18:25.553Z,25.23
2018-05-16T14:23:56.810Z,25.95
2018-05-16T14:26:25.240Z,26.05
2018-05-16T14:28:53.588Z,26.05
2018-05-16T14:31:22.694Z,26.50
2018-05-16T14:34:04.276Z,26.67
2018-05-16T14:36:36.328Z,26.93
2018-05-16T14:39:05.560Z,26.54
2018-05-16T14:41:33.897Z,27.54
2018-05-16T14:44:02.253Z,27.97
2018-05-16T14:46:30.729Z,28.59
2018-05-16T14:48:59.072Z,28.28
2018-05-16T14:51:27.417Z,28.28
2018-05-16T14:53:55.819Z,28.77
2018-05-16T14:56:24.143Z,29.49
2018-05-16T14:58:52.479Z,29.11
2018-05-16T15:01:20.850Z,29.31
2018-05-16T15:03:49.956Z,29.25
2018-05-16T15:06:18.270Z,29.13
2018-05-16T15:08:47.824Z,28.32
2018-05-16T15:11:16.141Z,28.13
2018-05-16T15:13:45.232Z,28.24
2018-05-16T15:16:13.576Z,28.43
2018-05-16T15:18:42.645Z,28.89
2018-05-16T15:21:10.999Z,28.32
2018-05-16T15:23:39.392Z,27.86
2018-05-16T15:26:07.715Z,28.16
2018-05-16T15:28:36.820Z,27.53
2018-05-16T15:31:05.421Z,28.17
2018-05-16T15:33:33.758Z,27.90
2018-05-16T15:36:02.828Z,28.20
2018-05-16T15:38:31.240Z,28.06
2018-05-16T15:40:59.524Z,28.42
2018-05-16T15:43:28.633Z,26.97
2018-05-16T15:45:57.712Z,26.26
2018-05-16T15:48:26.822Z,26.77
2018-05-16T15:50:55.130Z,26.84
2018-05-16T15:53:23.971Z,27.45
2018-05-16T15:55:53.058Z,28.12
2018-05-16T15:58:21.400Z,28.74
2018-05-16T16:00:49.778Z,28.89
2018-05-16T16:03:18.107Z,28.42
2018-05-16T16:05:46.472Z,29.09
2018-05-16T16:08:14.978Z,29.04
2018-05-16T16:10:43.259Z,29.24
2018-05-16T16:13:12.352Z,29.20
2018-05-16T16:15:41.721Z,29.50
2018-05-16T16:18:10.046Z,29.74
2018-05-16T16:20:38.390Z,28.95
2018-05-16T16:23:06.756Z,29.94
2018-05-16T16:25:35.106Z,30.40
2018-05-16T16:28:03.425Z,30.33
2018-05-16T16:30:31.790Z,30.09
2018-05-16T16:33:00.100Z,30.49
2018-05-16T16:35:28.448Z,31.30
2018-05-16T16:37:56.867Z,31.06
2018-05-16T16:40:25.203Z,31.15
2018-05-16T16:42:53.579Z,31.48
2018-05-16T16:45:21.971Z,31.49
2018-05-16T16:47:50.312Z,30.70
2018-05-16T16:50:18.682Z,30.57
2018-05-16T16:52:47.033Z,30.23
2018-05-16T16:55:16.155Z,30.30
2018-05-16T16:57:44.481Z,30.13
2018-05-16T17:00:13.389Z,30.12
2018-05-16T17:02:41.712Z,30.97
2018-05-16T17:05:10.200Z,30.96
2018-05-16T17:07:38.588Z,30.69
2018-05-16T17:10:06.945Z,30.80
2018-05-16T17:12:35.268Z,30.74
2018-05-16T17:15:04.410Z,30.77
2018-05-16T17:17:32.730Z,30.81
2018-05-16T17:20:01.057Z,31.41
2018-05-16T17:22:29.743Z,31.94
2018-05-16T17:24:58.053Z,32.18
2018-05-16T17:27:26.371Z,32.50
2018-05-16T17:29:54.749Z,32.50
2018-05-16T17:32:23.089Z,32.53
2018-05-16T17:34:51.443Z,32.61
2018-05-16T17:37:20.575Z,33.48
2018-05-16T17:39:48.899Z,33.93
2018-05-16T17:42:17.264Z,34.51
2018-05-16T17:44:45.963Z,35.08
2018-05-16T17:47:15.065Z,35.00
2018-05-16T17:49:44.187Z,35.24
2018-05-16T17:52:12.549Z,35.67
2018-05-16T17:54:41.628Z,35.55
2018-05-16T17:57:09.940Z,35.56
2018-05-16T17:59:38.289Z,35.79
2018-05-16T18:02:07.420Z,36.22
2018-05-16T18:04:35.791Z,36.78
2018-05-16T18:07:04.347Z,36.35
2018-05-16T18:09:33.486Z,36.54
2018-05-16T18:12:01.865Z,36.63
2018-05-16T18:18:02.194Z,37.38
2018-05-16T18:20:30.574Z,37.72
2018-05-16T18:22:58.928Z,37.74
2018-05-16T18:25:27.271Z,37.44
2018-05-16T18:27:56.235Z,37.99
2018-05-16T18:30:24.562Z,38.03
2018-05-16T18:32:52.871Z,37.95
2018-05-16T18:35:21.976Z,38.12
2018-05-16T18:37:51.056Z,37.40
2018-05-16T18:40:19.400Z,37.32
2018-05-16T18:42:47.746Z,36.96
2018-05-16T18:45:16.078Z,36.92
2018-05-16T18:47:44.415Z,36.37
2018-05-16T18:50:12.862Z,36.86
2018-05-16T18:52:42.017Z,36.67
2018-05-16T18:55:10.343Z,36.72
2018-05-16T18:57:39.465Z,37.00
2018-05-16T19:00:07.794Z,37.20
2018-05-16T19:02:36.107Z,37.24
2018-05-16T19:05:04.516Z,37.49
2018-05-16T19:07:32.949Z,37.63
2018-05-16T19:10:01.319Z,36.91
2018-05-16T19:12:29.869Z,37.15
2018-05-16T19:14:58.220Z,36.68
2018-05-16T19:17:26.552Z,37.13
2018-05-16T19:19:54.929Z,36.76
2018-05-16T19:22:23.285Z,36.71
2018-05-16T19:24:51.624Z,36.49
2018-05-16T19:27:20.005Z,36.77
2018-05-16T19:29:48.351Z,37.02
2018-05-16T19:32:16.676Z,37.37
2018-05-16T19:34:45.426Z,37.59
2018-05-16T19:37:13.757Z,37.92
2018-05-16T19:39:42.110Z,38.09
2018-05-16T19:42:10.458Z,38.35
2018-05-16T19:44:38.790Z,38.39
2018-05-16T19:47:07.129Z,38.63
2018-05-16T19:49:35.518Z,38.79
2018-05-16T19:52:04.274Z,38.57
2018-05-16T19:54:32.579Z,38.33
2018-05-16T19:57:02.180Z,38.63
2018-05-16T19:59:30.541Z,38.85
2018-05-16T20:01:58.904Z,40.08
2018-05-16T20:04:27.245Z,42.01
2018-05-16T20:06:55.594Z,45.25
2018-05-16T20:09:24.669Z,45.60
2018-05-16T20:11:53.048Z,46.33
2018-05-16T20:14:21.397Z,47.16
2018-05-16T20:16:49.790Z,47.83
2018-05-16T20:19:18.366Z,49.53
2018-05-16T20:21:46.700Z,50.22
2018-05-16T20:24:15.776Z,50.71
2018-05-16T20:26:44.136Z,50.99
2018-05-16T20:29:12.487Z,51.28
2018-05-16T20:31:40.838Z,52.06
2018-05-16T20:34:09.975Z,52.28
2018-05-16T20:36:38.310Z,53.43
2018-05-16T20:39:06.639Z,53.80
2018-05-16T20:41:35.111Z,54.96
2018-05-16T20:44:03.493Z,55.40
2018-05-16T20:46:31.850Z,54.94
2018-05-16T20:49:00.207Z,54.89
2018-05-16T20:51:30.091Z,54.87
2018-05-16T20:53:58.594Z,55.32
2018-05-16T20:56:27.694Z,55.74
2018-05-16T20:58:56.851Z,56.31
2018-05-16T21:01:25.147Z,56.50
2018-05-16T21:03:53.639Z,56.45
2018-05-16T21:06:21.992Z,56.42
2018-05-16T21:08:50.332Z,56.56
2018-05-16T21:11:18.773Z,56.70
2018-05-16T21:13:47.038Z,56.68
2018-05-16T21:16:15.360Z,56.17
2018-05-16T21:18:43.737Z,55.88
2018-05-16T21:21:12.102Z,55.72
2018-05-16T21:23:41.224Z,55.72
2018-05-16T21:26:09.657Z,55.73
2018-05-16T21:28:38.016Z,56.12
2018-05-16T21:31:06.346Z,56.51
2018-05-16T21:33:34.715Z,56.53
2018-05-16T21:36:03.821Z,56.12
2018-05-16T21:38:33.545Z,56.43
2018-05-16T21:41:01.977Z,56.67
2018-05-16T21:43:30.286Z,56.01
2018-05-16T21:45:59.401Z,56.67
2018-05-16T21:48:27.929Z,56.88
2018-05-16T21:50:56.268Z,56.44
2018-05-16T21:53:24.577Z,56.58
2018-05-16T21:55:52.965Z,56.78
2018-05-16T21:58:21.314Z,57.16
2018-05-16T22:00:49.625Z,57.04
2018-05-16T22:03:17.981Z,56.85
2018-05-16T22:05:46.322Z,57.12
2018-05-16T22:08:15.407Z,57.75
2018-05-16T22:10:44.295Z,57.69
2018-05-16T22:13:12.618Z,57.45
2018-05-16T22:15:40.949Z,57.64
2018-05-16T22:18:09.295Z,58.05
2018-05-16T22:20:37.635Z,58.10
2018-05-16T22:23:05.953Z,58.61
2018-05-16T22:25:34.279Z,58.16
2018-05-16T22:28:03.995Z,58.12
2018-05-16T22:30:38.914Z,58.59
2018-05-16T22:33:13.529Z,58.17
2018-05-16T22:35:47.431Z,58.25
2018-05-16T22:38:21.103Z,58.21
2018-05-16T22:40:54.989Z,58.87
2018-05-16T22:43:23.319Z,58.98
2018-05-16T22:46:02.996Z,58.79
2018-05-16T22:48:32.216Z,59.11
2018-05-16T22:51:00.811Z,59.82
2018-05-16T22:53:29.154Z,59.56
2018-05-16T22:55:58.263Z,59.22
2018-05-16T22:58:26.608Z,59.44
2018-05-16T23:00:55.157Z,59.18
2018-05-16T23:03:23.520Z,59.33
2018-05-16T23:05:51.932Z,59.69
2018-05-16T23:08:20.648Z,60.19
2018-05-16T23:10:49.264Z,60.20
2018-05-16T23:13:17.604Z,60.23
2018-05-16T23:15:45.970Z,60.24
2018-05-16T23:18:14.333Z,60.44
2018-05-16T23:20:42.694Z,60.63
2018-05-16T23:23:11.231Z,59.80
2018-05-16T23:25:39.536Z,60.52
2018-05-16T23:28:07.934Z,60.99
2018-05-16T23:30:36.368Z,61.46
2018-05-16T23:33:04.676Z,60.62
2018-05-16T23:35:34.125Z,60.88
2018-05-16T23:38:02.488Z,61.76
2018-05-16T23:40:30.827Z,62.02
2018-05-16T23:42:59.155Z,61.76
2018-05-16T23:45:27.518Z,61.21
2018-05-16T23:47:55.832Z,61.68
2018-05-16T23:50:24.147Z,62.08
2018-05-16T23:52:53.210Z,61.97
2018-05-16T23:55:21.541Z,62.08
2018-05-16T23:57:49.867Z,62.22
